New York, New York
Traffic Map
Current Weather Conditions
New York, New York
Overcast Light Snow
Overcast
33°
Feels Like: 33°
Wind Chill: 33° Ceiling: 1300
Heat Index: 33° Visibility: 1.7mi
Dew Point: 27° Wind: 3mph
Humidity: 78% Direction: 300° (WNW)
Pressure: 29.61in Gusts: 0mph
Raw Report DataKNYC 100641Z AUTO 30003KT 1 3/4SM -SN OVC013 01/M03 A2961 RMK AO2 SNB29 P0000 T00061028 $
Traffic Incident Summary
Active as of:
Severity:
Category:
InformationThere was an issue retrieving the traffic information for this location. Please try a different location or try again shortly.
Advertisements
Track Severe Weather on mobile